Time;durP1;ratioP1;P1;durP2;ratioP2;P2;SDS_P1;SDS_P2;PMS_P1;PMS_P2;Temp;Humidity;BMP_temperature;BMP_pressure;BME280_temperature;BME280_humidity;BME280_pressure;Samples;Min_cycle;Max_cycle;Signal;HPM_P1;HPM_P2
2022/11/19 00:02:24;;;;;;;20.65;13.32;;;11.20;99.90;;;;;;5093773;28;20415;-73
2022/11/19 00:04:50;;;;;;;23.17;16.45;;;11.20;99.90;;;;;;5093979;28;20515;-73
2022/11/19 00:07:16;;;;;;;21.00;14.75;;;11.10;99.90;;;;;;5092674;28;20633;-73
2022/11/19 00:09:41;;;;;;;19.70;14.82;;;11.00;99.90;;;;;;5095386;28;20085;-73
2022/11/19 00:14:53;;;;;;;23.95;17.13;;;10.90;99.90;;;;;;5094253;28;20050;-73
2022/11/19 00:17:19;;;;;;;26.45;19.15;;;10.90;99.90;;;;;;5097335;28;20472;-73
2022/11/19 00:19:44;;;;;;;31.92;20.90;;;10.90;99.90;;;;;;5098618;28;20032;-73
2022/11/19 00:22:10;;;;;;;33.60;22.77;;;10.80;99.90;;;;;;5096852;28;20046;-73
2022/11/19 00:24:36;;;;;;;32.83;22.98;;;10.70;99.90;;;;;;5100842;28;20035;-73
2022/11/19 00:27:02;;;;;;;32.80;22.63;;;10.50;99.90;;;;;;5099548;28;20039;-73
2022/11/19 00:29:27;;;;;;;35.67;22.92;;;10.40;99.90;;;;;;5098674;28;20020;-74
2022/11/19 00:31:53;;;;;;;37.78;24.52;;;10.40;99.90;;;;;;5098189;28;20456;-73
2022/11/19 00:34:19;;;;;;;35.30;24.38;;;10.40;99.90;;;;;;5100084;28;20506;-73
2022/11/19 00:36:44;;;;;;;39.58;25.55;;;10.40;99.90;;;;;;5097071;28;20023;-74
2022/11/19 00:39:10;;;;;;;38.22;25.00;;;10.40;99.90;;;;;;5095535;28;20035;-73
2022/11/19 00:41:35;;;;;;;37.50;24.83;;;10.40;99.90;;;;;;5100830;28;20042;-73
2022/11/19 00:44:01;;;;;;;41.40;28.48;;;10.30;99.90;;;;;;5098712;28;20027;-73
2022/11/19 00:46:29;;;;;;;40.50;26.98;;;10.40;99.90;;;;;;5100409;28;20107;-73
2022/11/19 00:48:57;;;;;;;41.35;27.42;;;10.40;99.90;;;;;;5098805;28;21141;-73
2022/11/19 00:51:25;;;;;;;54.60;33.42;;;10.50;99.90;;;;;;5099302;28;20494;-73
2022/11/19 00:53:51;;;;;;;57.30;33.63;;;10.50;99.90;;;;;;5094234;28;20111;-73
2022/11/19 00:56:19;;;;;;;57.22;35.72;;;10.50;99.90;;;;;;5098134;28;20103;-73
2022/11/19 00:58:45;;;;;;;71.78;39.38;;;10.50;99.90;;;;;;5096082;28;20419;-73
2022/11/19 01:01:12;;;;;;;64.00;37.47;;;10.40;99.90;;;;;;5098124;28;20116;-73
2022/11/19 01:03:39;;;;;;;64.32;36.70;;;10.30;99.90;;;;;;5097608;28;20508;-73
2022/11/19 01:06:06;;;;;;;70.05;39.97;;;10.20;99.90;;;;;;5096845;28;20027;-73
2022/11/19 01:08:33;;;;;;;72.82;41.05;;;10.10;99.90;;;;;;5098586;28;20472;-73
2022/11/19 01:11:10;;;;;;;73.10;41.30;;;10.10;99.90;;;;;;5096901;28;20111;-73
2022/11/19 01:13:36;;;;;;;71.82;39.05;;;10.00;99.90;;;;;;5095103;28;20645;-73
2022/11/19 01:16:08;;;;;;;68.57;39.17;;;10.00;99.90;;;;;;5097538;28;20016;-73
2022/11/19 01:18:35;;;;;;;71.63;37.60;;;10.00;99.90;;;;;;5079243;28;20407;-72
2022/11/19 01:21:02;;;;;;;71.97;37.63;;;10.00;99.90;;;;;;5096864;28;20024;-73
2022/11/19 01:23:27;;;;;;;74.60;39.25;;;9.90;99.90;;;;;;5101449;28;20059;-73
2022/11/19 01:25:53;;;;;;;66.03;36.58;;;9.90;99.90;;;;;;5106072;28;20116;-73
2022/11/19 01:28:19;;;;;;;65.10;36.25;;;10.00;99.90;;;;;;5105818;28;20043;-73
2022/11/19 01:30:45;;;;;;;64.07;35.80;;;10.00;99.90;;;;;;5089545;28;20056;-73
2022/11/19 01:33:11;;;;;;;67.75;36.33;;;10.10;99.90;;;;;;5104724;28;20114;-73
2022/11/19 01:35:37;;;;;;;73.68;36.60;;;9.90;99.90;;;;;;5104609;28;20104;-73
2022/11/19 01:38:03;;;;;;;69.57;35.40;;;9.80;99.90;;;;;;5109540;28;20130;-73
2022/11/19 01:40:29;;;;;;;64.05;33.72;;;9.70;99.90;;;;;;5106681;28;20023;-73
2022/11/19 01:42:55;;;;;;;70.95;35.30;;;9.70;99.90;;;;;;5107819;28;20034;-73
2022/11/19 01:45:30;;;;;;;68.95;34.47;;;9.50;99.90;;;;;;5094096;28;20353;-73
2022/11/19 01:48:06;;;;;;;56.35;32.40;;;9.40;99.90;;;;;;5103484;28;20027;-73
2022/11/19 01:50:36;;;;;;;54.60;33.35;;;9.40;99.90;;;;;;5101768;28;20028;-73
2022/11/19 01:53:02;;;;;;;55.65;32.00;;;9.50;99.90;;;;;;5107627;28;20365;-73
2022/11/19 01:55:29;;;;;;;47.40;29.60;;;9.60;99.90;;;;;;5107017;28;20107;-73
2022/11/19 01:57:58;;;;;;;48.75;29.83;;;9.60;99.90;;;;;;5086463;28;20028;-73
2022/11/19 02:00:25;;;;;;;46.55;28.77;;;9.60;99.90;;;;;;5111418;28;20102;-73
2022/11/19 02:02:50;;;;;;;52.92;29.23;;;9.30;99.90;;;;;;5111609;28;20031;-73
2022/11/19 02:05:17;;;;;;;55.72;28.83;;;9.10;99.90;;;;;;5108122;28;20087;-73
2022/11/19 02:07:47;;;;;;;48.42;28.05;;;9.20;99.90;;;;;;5107865;28;20077;-73
2022/11/19 02:10:13;;;;;;;46.42;27.60;;;9.40;99.90;;;;;;5103894;28;20031;-73
2022/11/19 02:12:54;;;;;;;46.13;28.75;;;9.30;99.90;;;;;;5100901;28;20110;-73
2022/11/19 02:15:58;;;;;;;46.17;27.45;;;9.20;99.90;;;;;;5104927;28;20034;-73
2022/11/19 02:18:41;;;;;;;43.95;27.58;;;9.10;99.90;;;;;;5105285;28;20506;-73
2022/11/19 02:21:14;;;;;;;52.33;27.45;;;8.90;99.90;;;;;;5109882;28;20096;-73
2022/11/19 02:24:30;;;;;;;48.00;28.95;;;8.80;99.90;;;;;;5103963;28;20023;-73
2022/11/19 02:27:33;;;;;;;50.92;28.63;;;9.00;99.90;;;;;;5088212;28;20031;-73
2022/11/19 02:30:13;;;;;;;;;;;9.00;99.90;;;;;;5091970;28;20066;-73
2022/11/19 02:33:02;;;;;;;56.25;28.95;;;8.70;99.90;;;;;;5105399;28;19912;-73
2022/11/19 02:35:45;;;;;;;62.50;31.70;;;8.50;99.90;;;;;;5087581;28;20039;-73
2022/11/19 02:38:37;;;;;;;54.35;29.90;;;8.40;99.90;;;;;;5108247;28;20499;-73
2022/11/19 02:41:33;;;;;;;54.93;31.67;;;8.50;99.90;;;;;;5106156;28;20020;-73
2022/11/19 02:47:02;;;;;;;54.47;29.70;;;8.50;99.90;;;;;;5104264;28;20081;-73
2022/11/19 02:49:30;;;;;;;55.50;30.45;;;8.40;99.90;;;;;;5102427;28;20073;-72
2022/11/19 02:51:57;;;;;;;57.22;30.85;;;8.20;99.90;;;;;;5103747;28;20039;-73
2022/11/19 02:54:24;;;;;;;51.00;29.65;;;8.10;99.90;;;;;;5100468;28;20374;-73
2022/11/19 02:56:57;;;;;;;53.25;29.67;;;8.10;99.90;;;;;;5100496;28;20024;-73
2022/11/19 03:05:05;;;;;;;52.42;28.75;;;8.00;99.90;;;;;;5098408;28;20499;-73
2022/11/19 03:07:31;;;;;;;48.05;28.08;;;8.10;99.90;;;;;;5084761;28;20472;-73
2022/11/19 03:10:01;;;;;;;46.88;28.27;;;7.90;99.90;;;;;;5108299;28;20027;-73
2022/11/19 03:12:47;;;;;;;45.35;26.30;;;8.00;99.90;;;;;;5098180;28;20412;-73
2022/11/19 03:18:23;;;;;;;45.28;26.70;;;7.90;99.90;;;;;;5106216;28;20043;-72
2022/11/19 03:21:00;;;;;;;44.13;25.00;;;7.80;99.90;;;;;;5105820;28;20495;-73
2022/11/19 03:23:32;;;;;;;39.47;23.67;;;7.80;99.90;;;;;;5100826;28;20077;-73
2022/11/19 03:26:07;;;;;;;43.00;22.13;;;7.80;99.90;;;;;;5104667;28;20016;-73
2022/11/19 03:28:36;;;;;;;38.33;22.83;;;7.80;99.90;;;;;;5108640;28;20024;-73
2022/11/19 03:31:04;;;;;;;43.90;23.52;;;7.70;99.90;;;;;;5105272;28;20111;-73
2022/11/19 03:33:38;;;;;;;37.45;23.70;;;7.80;99.90;;;;;;5103797;28;20307;-73
2022/11/19 03:36:21;;;;;;;35.95;22.15;;;7.90;99.90;;;;;;5086881;28;20369;-72
2022/11/19 03:38:51;;;;;;;33.95;22.15;;;8.00;99.90;;;;;;5102406;28;20076;-73
2022/11/19 03:41:19;;;;;;;31.17;20.08;;;7.90;99.90;;;;;;5110171;28;20073;-73
2022/11/19 03:43:52;;;;;;;38.10;21.65;;;8.00;99.90;;;;;;5102082;28;20102;-73
2022/11/19 03:46:19;;;;;;;32.90;20.63;;;8.10;99.90;;;;;;5106445;28;20012;-72
2022/11/19 03:48:49;;;;;;;32.28;20.42;;;7.90;99.90;;;;;;5104053;28;20204;-73
2022/11/19 03:51:26;;;;;;;36.22;21.85;;;7.90;99.90;;;;;;5103917;28;20023;-73
2022/11/19 03:53:52;;;;;;;32.70;21.00;;;7.90;99.90;;;;;;5099532;28;20031;-72
2022/11/19 03:56:23;;;;;;;28.08;19.30;;;8.00;99.90;;;;;;5100169;28;20016;-73
2022/11/19 03:58:49;;;;;;;37.92;23.05;;;7.80;99.90;;;;;;5101188;28;20036;-72
2022/11/19 04:01:14;;;;;;;34.80;21.48;;;7.90;99.90;;;;;;5109140;28;20152;-72
2022/11/19 04:04:34;;;;;;;34.97;20.88;;;7.90;99.90;;;;;;5103631;28;20059;-72
2022/11/19 04:06:26;;;;;;;33.80;20.73;;;8.00;99.90;;;;;;5104676;28;20019;-73
2022/11/19 04:08:51;;;;;;;37.08;21.75;;;7.90;99.90;;;;;;5102475;28;20565;-73
2022/11/19 04:11:17;;;;;;;45.55;23.42;;;8.00;99.90;;;;;;5102744;28;20022;-73
2022/11/19 04:13:42;;;;;;;32.03;20.73;;;8.10;99.90;;;;;;5104104;28;20015;-73
2022/11/19 04:16:08;;;;;;;32.33;20.90;;;8.10;99.90;;;;;;5105610;28;20372;-72
2022/11/19 04:18:33;;;;;;;32.17;20.70;;;8.10;99.90;;;;;;5104617;28;20042;-73
2022/11/19 04:20:59;;;;;;;35.50;21.42;;;8.10;99.90;;;;;;5107721;28;20055;-73
2022/11/19 04:23:24;;;;;;;31.10;19.55;;;8.10;99.90;;;;;;5106154;28;20031;-73
2022/11/19 04:25:50;;;;;;;36.42;22.88;;;7.90;99.90;;;;;;5099830;28;20480;-73
2022/11/19 04:28:15;;;;;;;31.73;21.17;;;8.00;99.90;;;;;;5081234;28;20027;-73
2022/11/19 04:30:42;;;;;;;28.35;21.08;;;7.90;99.90;;;;;;5103183;28;20031;-73
2022/11/19 04:33:07;;;;;;;31.30;20.95;;;7.90;99.90;;;;;;5106845;28;20020;-73
2022/11/19 04:35:33;;;;;;;33.83;20.88;;;7.70;99.90;;;;;;5106372;28;20016;-73
2022/11/19 04:37:58;;;;;;;35.15;23.17;;;7.60;99.90;;;;;;5099879;28;20036;-73
2022/11/19 04:40:24;;;;;;;36.65;22.90;;;7.70;99.90;;;;;;5090173;28;20375;-73
2022/11/19 04:42:49;;;;;;;34.13;21.92;;;7.50;99.90;;;;;;5102316;28;20028;-73
2022/11/19 04:45:15;;;;;;;38.40;23.45;;;7.50;99.90;;;;;;5106172;28;20024;-73
2022/11/19 04:47:41;;;;;;;35.67;22.75;;;7.60;99.90;;;;;;5098927;28;20023;-73
2022/11/19 04:50:07;;;;;;;37.00;22.65;;;7.50;99.90;;;;;;5089432;28;20024;-73
2022/11/19 04:52:32;;;;;;;35.20;22.35;;;7.30;99.90;;;;;;5089658;28;20046;-73
2022/11/19 04:54:58;;;;;;;36.58;23.60;;;7.40;99.90;;;;;;5100342;28;20032;-73
2022/11/19 04:57:24;;;;;;;41.03;24.75;;;7.50;99.90;;;;;;5097062;28;20452;-73
2022/11/19 04:59:49;;;;;;;44.00;24.50;;;7.50;99.90;;;;;;5103421;28;20047;-73
2022/11/19 05:02:15;;;;;;;37.80;23.73;;;7.60;99.90;;;;;;5110341;28;20065;-73
2022/11/19 05:04:41;;;;;;;43.05;23.88;;;7.50;99.90;;;;;;5109845;28;20045;-73
2022/11/19 05:07:06;;;;;;;40.10;24.52;;;7.30;99.90;;;;;;5106864;28;20027;-73
2022/11/19 05:09:32;;;;;;;40.22;24.65;;;7.40;99.90;;;;;;5108417;28;20468;-73
2022/11/19 05:11:57;;;;;;;39.25;24.48;;;7.40;99.90;;;;;;5105790;28;20063;-73
2022/11/19 05:14:23;;;;;;;35.22;22.50;;;7.50;99.90;;;;;;5111792;28;20024;-73
2022/11/19 05:16:48;;;;;;;36.83;22.42;;;7.40;99.90;;;;;;5103523;28;20024;-73
2022/11/19 05:19:14;;;;;;;34.95;23.02;;;7.60;99.90;;;;;;5104554;28;20526;-73
2022/11/19 05:21:39;;;;;;;41.65;24.17;;;7.50;99.90;;;;;;5105998;28;20028;-73
2022/11/19 05:24:05;;;;;;;35.10;22.77;;;7.50;99.90;;;;;;5111040;28;20493;-73
2022/11/19 05:26:31;;;;;;;35.80;22.50;;;7.60;99.90;;;;;;5104446;28;20047;-72
2022/11/19 05:28:56;;;;;;;37.75;23.30;;;7.50;99.90;;;;;;5111002;28;20068;-73
2022/11/19 05:31:22;;;;;;;39.20;24.48;;;7.20;99.90;;;;;;5097844;28;20430;-73
2022/11/19 05:33:48;;;;;;;39.67;25.50;;;7.30;99.90;;;;;;5109468;28;20057;-72
2022/11/19 05:36:13;;;;;;;39.35;24.20;;;7.40;99.90;;;;;;5108140;28;20030;-72
2022/11/19 05:38:40;;;;;;;34.53;22.40;;;7.50;99.90;;;;;;5104577;28;20165;-73
2022/11/19 05:41:05;;;;;;;37.90;24.10;;;7.30;99.90;;;;;;5090455;28;20385;-73
2022/11/19 05:43:31;;;;;;;37.88;24.60;;;7.30;99.90;;;;;;5104870;28;20031;-73
2022/11/19 05:45:59;;;;;;;40.38;25.70;;;7.20;99.90;;;;;;5102712;28;20027;-72
2022/11/19 05:48:25;;;;;;;38.53;23.58;;;7.20;99.90;;;;;;5109659;28;20024;-73
2022/11/19 05:50:50;;;;;;;39.88;24.20;;;7.10;99.90;;;;;;5102323;28;20391;-72
2022/11/19 05:53:16;;;;;;;39.50;24.85;;;7.10;99.90;;;;;;5108354;28;20031;-73
2022/11/19 05:55:41;;;;;;;40.90;25.58;;;6.80;99.90;;;;;;5107635;28;20630;-72
2022/11/19 05:58:07;;;;;;;44.65;26.75;;;6.90;99.90;;;;;;5107405;28;20050;-73
2022/11/19 06:00:33;;;;;;;43.50;25.75;;;6.80;99.90;;;;;;5106005;28;20012;-73
2022/11/19 06:02:58;;;;;;;41.08;24.92;;;6.90;99.90;;;;;;5083265;28;20051;-73
2022/11/19 06:05:24;;;;;;;46.95;26.52;;;6.80;99.90;;;;;;5101957;28;20020;-73
2022/11/19 06:07:49;;;;;;;43.78;25.38;;;6.90;99.90;;;;;;5101967;28;20465;-72
2022/11/19 06:10:15;;;;;;;46.90;26.00;;;6.90;99.90;;;;;;5103500;28;20081;-72
2022/11/19 06:12:42;;;;;;;47.10;24.30;;;6.90;99.90;;;;;;5104277;28;20024;-72
2022/11/19 06:15:08;;;;;;;44.33;25.40;;;6.90;99.90;;;;;;5106616;28;20020;-72
2022/11/19 06:17:34;;;;;;;45.58;25.27;;;7.10;99.90;;;;;;5103815;28;20073;-72
2022/11/19 06:20:00;;;;;;;42.28;26.63;;;7.20;99.90;;;;;;5107939;28;20421;-72
2022/11/19 06:22:25;;;;;;;45.15;26.83;;;7.10;99.90;;;;;;5107008;28;20090;-72
2022/11/19 06:24:51;;;;;;;43.80;25.42;;;7.10;99.90;;;;;;5104435;28;20092;-72
2022/11/19 06:27:16;;;;;;;44.10;25.70;;;7.10;99.90;;;;;;5102430;28;20106;-73
2022/11/19 06:29:42;;;;;;;45.75;26.13;;;7.00;99.90;;;;;;5104477;28;20016;-73
2022/11/19 06:32:07;;;;;;;47.08;27.17;;;6.90;99.90;;;;;;5104569;28;20027;-72
2022/11/19 06:34:33;;;;;;;51.78;28.50;;;7.00;99.90;;;;;;5101544;28;20081;-72
2022/11/19 06:36:59;;;;;;;43.60;26.27;;;7.00;99.90;;;;;;5104062;28;20032;-72
2022/11/19 06:39:24;;;;;;;51.05;28.00;;;6.90;99.90;;;;;;5104059;28;20040;-73
2022/11/19 06:41:50;;;;;;;54.20;29.60;;;6.90;99.90;;;;;;5089277;28;20408;-72
2022/11/19 06:44:15;;;;;;;52.90;30.42;;;6.80;99.90;;;;;;5109501;28;20114;-72
2022/11/19 06:46:41;;;;;;;54.15;30.65;;;6.70;99.90;;;;;;5103050;28;20088;-72
2022/11/19 06:49:08;;;;;;;55.20;31.92;;;6.60;99.90;;;;;;5108384;28;20433;-72
2022/11/19 06:51:33;;;;;;;52.78;30.58;;;6.60;99.90;;;;;;5102432;28;20020;-72
2022/11/19 06:53:59;;;;;;;51.20;29.40;;;6.60;99.90;;;;;;5108566;28;20027;-72
2022/11/19 06:56:24;;;;;;;56.22;30.77;;;6.60;99.90;;;;;;5102934;28;20095;-72
2022/11/19 06:58:50;;;;;;;56.60;31.92;;;6.40;99.90;;;;;;5105899;28;20067;-72
2022/11/19 07:01:16;;;;;;;62.05;32.17;;;6.20;99.90;;;;;;5102352;28;20055;-72
2022/11/19 07:03:41;;;;;;;63.63;32.90;;;6.20;99.90;;;;;;5107150;28;20031;-72
2022/11/19 07:06:07;;;;;;;67.38;33.15;;;6.20;99.90;;;;;;5101081;28;20430;-72
2022/11/19 07:08:34;;;;;;;65.00;33.75;;;6.20;99.90;;;;;;5102646;28;20031;-73
2022/11/19 07:11:24;;;;;;;63.30;32.80;;;6.20;99.90;;;;;;5101646;28;20396;-72
2022/11/19 07:13:58;;;;;;;69.45;34.70;;;6.40;99.90;;;;;;5106277;28;20483;-72
2022/11/19 07:16:26;;;;;;;59.95;33.47;;;6.60;99.90;;;;;;5100689;28;20378;-73
2022/11/19 07:18:52;;;;;;;63.30;33.40;;;6.50;99.90;;;;;;5103772;28;20032;-74
2022/11/19 07:21:18;;;;;;;67.30;35.13;;;6.50;99.90;;;;;;5084099;28;20531;-72
2022/11/19 07:23:43;;;;;;;64.72;33.38;;;6.30;99.90;;;;;;5088229;28;20027;-73
2022/11/19 07:26:09;;;;;;;70.00;35.08;;;6.30;99.90;;;;;;5106372;28;20387;-72
2022/11/19 07:28:35;;;;;;;65.68;33.08;;;6.40;99.90;;;;;;5105675;28;20143;-73
2022/11/19 07:31:04;;;;;;;64.57;33.90;;;6.40;99.90;;;;;;5103147;28;20019;-72
2022/11/19 07:33:30;;;;;;;68.90;35.35;;;6.40;99.90;;;;;;5104210;28;20027;-72
2022/11/19 07:35:55;;;;;;;65.75;35.47;;;6.40;99.90;;;;;;5097594;28;20026;-72
2022/11/19 07:38:21;;;;;;;70.00;35.10;;;6.40;99.90;;;;;;5101317;28;20150;-73
2022/11/19 07:40:53;;;;;;;74.72;37.67;;;6.50;99.90;;;;;;5107776;28;20380;-72
2022/11/19 07:43:19;;;;;;;66.55;35.22;;;6.70;99.90;;;;;;5098529;28;20111;-72
2022/11/19 07:45:45;;;;;;;69.90;35.20;;;6.70;99.90;;;;;;5096937;28;20102;-73
2022/11/19 07:48:11;;;;;;;68.28;36.33;;;6.60;99.90;;;;;;5101451;28;20066;-73
2022/11/19 07:50:36;;;;;;;71.90;36.15;;;6.50;99.90;;;;;;5108392;28;20028;-72
2022/11/19 07:53:02;;;;;;;75.80;39.40;;;6.40;99.90;;;;;;5108198;28;20023;-73
2022/11/19 07:55:28;;;;;;;81.13;38.55;;;6.30;99.90;;;;;;5106113;28;20027;-72
2022/11/19 07:57:53;;;;;;;78.38;37.92;;;6.30;99.90;;;;;;5104266;28;20102;-73
2022/11/19 08:00:19;;;;;;;85.38;40.28;;;6.30;99.90;;;;;;5105531;28;20034;-71
2022/11/19 08:02:45;;;;;;;78.32;38.03;;;6.40;99.90;;;;;;5104970;28;20034;-71
2022/11/19 08:05:10;;;;;;;72.53;37.75;;;6.20;99.90;;;;;;5102837;28;20077;-72
2022/11/19 08:07:37;;;;;;;79.38;39.38;;;6.30;99.90;;;;;;5098608;28;20055;-71
2022/11/19 08:10:05;;;;;;;72.18;38.83;;;6.40;99.90;;;;;;5098412;28;20055;-70
2022/11/19 08:12:31;;;;;;;77.75;39.17;;;6.40;99.90;;;;;;5099507;28;20454;-73
2022/11/19 08:14:57;;;;;;;78.50;40.28;;;6.30;99.90;;;;;;5107557;28;20103;-72
2022/11/19 08:20:07;;;;;;;84.72;38.95;;;6.40;99.90;;;;;;5103030;28;20104;-71
2022/11/19 08:22:34;;;;;;;75.20;38.92;;;6.50;99.90;;;;;;5103807;28;20031;-70
2022/11/19 08:25:00;;;;;;;75.88;38.78;;;6.50;99.90;;;;;;5100073;28;20051;-70
2022/11/19 08:27:26;;;;;;;79.80;41.47;;;6.50;99.90;;;;;;5102723;28;20058;-71
2022/11/19 08:29:52;;;;;;;75.28;38.03;;;6.30;99.90;;;;;;5103299;28;20044;-72
2022/11/19 08:32:18;;;;;;;78.22;38.05;;;6.10;99.90;;;;;;5101897;28;20099;-72
2022/11/19 08:34:44;;;;;;;75.18;38.45;;;6.00;99.90;;;;;;5104445;28;20035;-72
2022/11/19 08:37:12;;;;;;;76.22;36.90;;;6.10;99.90;;;;;;5102264;28;20483;-73
2022/11/19 08:39:39;;;;;;;74.35;36.25;;;6.00;99.90;;;;;;5105990;28;20085;-72
2022/11/19 08:45:06;;;;;;;76.65;35.70;;;5.70;99.90;;;;;;5039197;28;20068;-73
2022/11/19 08:47:32;;;;;;;76.88;36.83;;;5.80;99.90;;;;;;5089719;28;20403;-73
2022/11/19 08:49:57;;;;;;;76.53;36.55;;;5.80;99.90;;;;;;5109363;28;20024;-72
2022/11/19 08:52:23;;;;;;;81.43;37.83;;;5.60;99.90;;;;;;5105380;28;20020;-73
2022/11/19 08:54:48;;;;;;;81.28;38.25;;;5.60;99.90;;;;;;5107815;28;20032;-73
2022/11/19 08:57:14;;;;;;;76.18;37.35;;;5.50;99.90;;;;;;5109357;28;20387;-72
2022/11/19 08:59:40;;;;;;;85.82;39.45;;;5.70;99.90;;;;;;5109725;28;20148;-72
2022/11/19 09:02:05;;;;;;;80.03;37.53;;;5.80;99.90;;;;;;5103750;28;20031;-72
2022/11/19 09:04:31;;;;;;;80.93;38.53;;;5.90;99.90;;;;;;5106415;28;20094;-73
2022/11/19 09:06:56;;;;;;;78.75;38.05;;;5.90;99.90;;;;;;5102548;28;20020;-73
2022/11/19 09:09:22;;;;;;;82.82;37.38;;;5.90;99.90;;;;;;5107928;28;20516;-72
2022/11/19 09:11:48;;;;;;;84.47;38.38;;;6.00;99.90;;;;;;5109121;28;20049;-73
2022/11/19 09:14:13;;;;;;;80.95;38.00;;;6.10;99.90;;;;;;5110526;28;20059;-72
2022/11/19 09:16:39;;;;;;;85.32;39.50;;;6.00;99.90;;;;;;5107012;28;20496;-72
2022/11/19 09:19:04;;;;;;;85.22;37.58;;;6.00;99.90;;;;;;5110814;28;20031;-72
2022/11/19 09:21:30;;;;;;;81.45;39.75;;;5.90;99.90;;;;;;5109559;28;20074;-71
2022/11/19 09:23:55;;;;;;;93.07;41.63;;;5.90;99.90;;;;;;5110698;28;20019;-70
2022/11/19 09:26:21;;;;;;;95.82;41.47;;;5.80;99.90;;;;;;5087574;28;20023;-71
2022/11/19 09:28:48;;;;;;;83.13;39.38;;;5.80;99.90;;;;;;5109248;28;20028;-71
2022/11/19 09:31:16;;;;;;;93.30;41.88;;;5.90;99.90;;;;;;5105969;28;20395;-71
2022/11/19 09:33:47;;;;;;;91.40;41.78;;;6.10;99.90;;;;;;5102990;28;20069;-72
2022/11/19 09:36:13;;;;;;;82.60;38.83;;;6.20;99.90;;;;;;5108491;28;20020;-72
2022/11/19 09:38:40;;;;;;;80.53;39.25;;;6.20;99.90;;;;;;5107281;28;20501;-72
2022/11/19 09:41:22;;;;;;;99.90;39.95;;;6.30;99.90;;;;;;5098933;28;20384;-72
2022/11/19 09:44:25;;;;;;;90.93;39.63;;;6.20;99.90;;;;;;5105474;28;20499;-73
2022/11/19 09:47:21;;;;;;;84.18;38.70;;;6.10;99.90;;;;;;5097869;28;20070;-73
2022/11/19 09:50:31;;;;;;;89.93;38.45;;;6.00;99.90;;;;;;5085877;28;20035;-73
2022/11/19 09:53:14;;;;;;;90.28;40.85;;;6.00;99.90;;;;;;5054548;28;20036;-72
2022/11/19 09:55:45;;;;;;;93.43;42.20;;;5.90;99.90;;;;;;5108287;28;20028;-72
2022/11/19 09:58:40;;;;;;;99.40;40.58;;;6.00;99.90;;;;;;5107603;28;20065;-72
2022/11/19 10:01:12;;;;;;;79.85;38.03;;;5.90;99.90;;;;;;5083840;28;20024;-70
2022/11/19 10:03:40;;;;;;;90.30;41.20;;;5.90;99.90;;;;;;5104453;28;20070;-71
2022/11/19 10:06:24;;;;;;;90.07;41.78;;;6.00;99.90;;;;;;5097111;28;20129;-72
2022/11/19 10:09:13;;;;;;;90.10;40.95;;;5.90;99.90;;;;;;5106330;28;20027;-70
2022/11/19 10:12:00;;;;;;;87.00;39.58;;;5.90;99.90;;;;;;5108819;28;20032;-73
2022/11/19 10:14:41;;;;;;;96.22;41.72;;;5.90;99.90;;;;;;5104272;28;20035;-71
2022/11/19 10:17:33;;;;;;;91.15;41.50;;;6.00;99.90;;;;;;5100882;28;20080;-72
2022/11/19 10:20:21;;;;;;;97.95;42.85;;;6.20;99.90;;;;;;5103739;28;20059;-72
2022/11/19 10:23:09;;;;;;;79.93;38.63;;;6.20;99.90;;;;;;5109078;28;20028;-70
2022/11/19 10:25:40;;;;;;;91.95;40.30;;;6.20;99.90;;;;;;5107800;28;20038;-72
2022/11/19 10:28:21;;;;;;;82.35;38.90;;;6.30;99.90;;;;;;5080112;28;20039;-72
2022/11/19 10:30:54;;;;;;;81.88;39.38;;;6.20;99.90;;;;;;5063382;28;20422;-73
2022/11/19 10:33:29;;;;;;;88.55;39.80;;;6.10;99.90;;;;;;5097234;28;20104;-74
2022/11/19 10:36:09;;;;;;;78.30;36.47;;;6.00;99.90;;;;;;5096947;28;20031;-73
2022/11/19 10:38:46;;;;;;;83.85;38.35;;;5.70;99.90;;;;;;5094745;28;20027;-73
2022/11/19 10:41:20;;;;;;;79.78;35.83;;;5.80;99.90;;;;;;5094583;28;20467;-73
2022/11/19 10:44:35;;;;;;;78.57;38.22;;;5.70;99.90;;;;;;5078522;28;20032;-73
2022/11/19 10:46:58;;;;;;;84.28;35.97;;;5.80;99.90;;;;;;5095011;28;20079;-73
2022/11/19 10:49:24;;;;;;;74.75;36.55;;;5.60;99.90;;;;;;5095135;28;20020;-73
2022/11/19 10:51:50;;;;;;;81.22;36.45;;;5.50;99.90;;;;;;5094686;28;20028;-73
2022/11/19 10:54:27;;;;;;;80.95;37.47;;;5.60;99.90;;;;;;5095910;28;20019;-73
2022/11/19 10:56:54;;;;;;;78.30;37.15;;;5.70;99.90;;;;;;5092218;28;20016;-73
2022/11/19 10:59:23;;;;;;;83.78;36.70;;;5.70;99.90;;;;;;5093152;28;20051;-73
2022/11/19 11:01:55;;;;;;;87.07;36.55;;;5.70;99.90;;;;;;5096247;28;20012;-73
2022/11/19 11:04:23;;;;;;;86.00;36.47;;;5.60;99.90;;;;;;5094327;28;20027;-73
2022/11/19 11:06:48;;;;;;;77.75;37.25;;;5.60;99.90;;;;;;5093883;28;20039;-73
2022/11/19 11:09:29;;;;;;;82.38;36.58;;;5.70;99.90;;;;;;5094849;28;20028;-73
2022/11/19 11:14:53;;;;;;;86.95;37.55;;;5.80;99.90;;;;;;5094086;28;20501;-73
2022/11/19 11:17:23;;;;;;;88.45;37.03;;;5.80;99.90;;;;;;5097254;28;20015;-73
2022/11/19 11:20:15;;;;;;;73.55;34.63;;;6.00;99.90;;;;;;5097791;28;20027;-73
2022/11/19 11:22:42;;;;;;;78.28;36.00;;;5.90;99.90;;;;;;5072551;28;20122;-73
2022/11/19 11:25:22;;;;;;;75.82;34.13;;;5.90;99.90;;;;;;5093434;28;20623;-73
2022/11/19 11:28:14;;;;;;;68.43;32.33;;;5.80;99.90;;;;;;5073326;28;20381;-73
2022/11/19 11:30:56;;;;;;;66.28;30.27;;;5.90;99.90;;;;;;5095434;28;20024;-73
2022/11/19 11:33:33;;;;;;;70.47;31.38;;;5.80;99.90;;;;;;5095085;28;20058;-73
2022/11/19 11:36:13;;;;;;;68.13;32.92;;;5.90;99.90;;;;;;5093508;28;20080;-74
2022/11/19 11:38:42;;;;;;;67.65;32.65;;;5.90;99.90;;;;;;5092385;28;20048;-73
2022/11/19 11:41:11;;;;;;;57.03;29.20;;;6.00;99.90;;;;;;5076646;28;20032;-73
2022/11/19 11:44:00;;;;;;;60.80;28.90;;;5.90;99.90;;;;;;5096530;28;20031;-75
2022/11/19 11:46:52;;;;;;;62.08;29.60;;;5.80;99.90;;;;;;5077270;28;20047;-73
2022/11/19 11:49:33;;;;;;;56.87;28.50;;;5.70;99.90;;;;;;5073654;28;20067;-73
2022/11/19 11:52:16;;;;;;;69.05;31.27;;;5.70;99.90;;;;;;5097297;28;20026;-73
2022/11/19 11:55:04;;;;;;;58.30;29.38;;;5.70;99.90;;;;;;5093464;28;20027;-73
2022/11/19 11:57:32;;;;;;;58.88;28.33;;;5.60;99.90;;;;;;5089965;28;20100;-73
2022/11/19 11:59:59;;;;;;;64.78;28.50;;;5.60;99.90;;;;;;5094972;28;20084;-73
2022/11/19 12:02:33;;;;;;;59.72;27.60;;;5.60;99.90;;;;;;5093080;28;20019;-73
2022/11/19 12:05:04;;;;;;;63.47;29.63;;;5.70;99.90;;;;;;5082187;28;20027;-73
2022/11/19 12:08:06;;;;;;;56.40;27.92;;;5.70;99.90;;;;;;5093464;28;20031;-76
2022/11/19 12:10:50;;;;;;;68.88;30.30;;;5.70;99.90;;;;;;5082827;28;20020;-73
2022/11/19 12:13:34;;;;;;;60.05;28.17;;;5.60;99.90;;;;;;5097247;28;20122;-72
2022/11/19 12:16:06;;;;;;;66.78;27.88;;;5.60;99.90;;;;;;5101241;28;20028;-73
2022/11/19 12:18:58;;;;;;;63.50;27.25;;;5.60;99.90;;;;;;5097422;28;20048;-72
2022/11/19 12:21:42;;;;;;;55.05;26.48;;;5.60;99.90;;;;;;5100649;28;20028;-72
2022/11/19 12:24:14;;;;;;;64.53;26.92;;;5.60;99.90;;;;;;5100005;28;20460;-73
2022/11/19 12:27:01;;;;;;;56.13;26.65;;;5.50;99.90;;;;;;5097526;28;20028;-73
2022/11/19 12:30:05;;;;;;;52.60;26.25;;;5.60;99.90;;;;;;5082228;28;20059;-73
2022/11/19 12:33:05;;;;;;;55.08;25.75;;;5.70;99.90;;;;;;5038032;28;20093;-72
2022/11/19 12:36:09;;;;;;;53.95;26.40;;;5.60;99.90;;;;;;5100985;28;20444;-73
2022/11/19 12:38:35;;;;;;;54.78;26.58;;;5.60;99.90;;;;;;5079826;28;20051;-73
2022/11/19 12:41:16;;;;;;;60.05;28.98;;;5.70;99.90;;;;;;5080364;28;20024;-73
2022/11/19 12:43:51;;;;;;;60.90;28.50;;;5.70;99.90;;;;;;5098998;28;21347;-73
2022/11/19 12:46:29;;;;;;;56.60;26.13;;;5.90;99.90;;;;;;5099338;28;20018;-72
2022/11/19 12:49:19;;;;;;;54.75;27.13;;;5.90;99.90;;;;;;5079330;28;20472;-72
2022/11/19 12:52:15;;;;;;;53.17;27.27;;;6.00;99.90;;;;;;5097579;28;20036;-72
2022/11/19 12:55:14;;;;;;;49.55;26.02;;;5.90;99.90;;;;;;5101155;28;20457;-72
2022/11/19 12:57:57;;;;;;;43.75;22.92;;;5.90;99.90;;;;;;5075769;28;20043;-73
2022/11/19 13:00:24;;;;;;;46.25;22.70;;;6.00;99.90;;;;;;5099731;28;20471;-72
2022/11/19 13:03:07;;;;;;;40.13;21.20;;;6.00;99.90;;;;;;5099398;28;20039;-72
2022/11/19 13:05:39;;;;;;;36.33;21.98;;;5.90;99.90;;;;;;5100958;28;20454;-73
2022/11/19 13:08:12;;;;;;;37.38;20.73;;;5.90;99.90;;;;;;5099224;28;20032;-73
2022/11/19 13:10:44;;;;;;;38.85;21.65;;;5.80;99.90;;;;;;5101895;28;20112;-72
2022/11/19 13:13:14;;;;;;;36.20;21.00;;;5.90;99.90;;;;;;5097218;28;20056;-72
2022/11/19 13:16:01;;;;;;;33.35;19.60;;;5.80;99.90;;;;;;5100825;28;20110;-73
2022/11/19 13:18:31;;;;;;;37.08;21.92;;;5.70;99.90;;;;;;5098432;28;20035;-72
2022/11/19 13:21:15;;;;;;;37.45;20.08;;;5.80;99.90;;;;;;5099367;28;20544;-72